createdAt,value
2018-08-12T00:00:15.332Z,15.46
2018-08-12T00:01:15.353Z,15.36
2018-08-12T00:03:08.279Z,15.39
2018-08-12T00:04:08.279Z,15.43
2018-08-12T00:06:01.193Z,15.32
2018-08-12T00:07:01.219Z,15.43
2018-08-12T00:08:54.144Z,15.31
2018-08-12T00:09:54.141Z,15.47
2018-08-12T00:11:47.048Z,15.36
2018-08-12T00:12:47.069Z,15.44
2018-08-12T00:14:39.992Z,15.36
2018-08-12T00:15:40.064Z,15.43
2018-08-12T00:17:32.924Z,15.38
2018-08-12T00:18:32.923Z,15.39
2018-08-12T00:20:25.828Z,15.31
2018-08-12T00:21:25.848Z,15.35
2018-08-12T00:23:18.780Z,15.21
2018-08-12T00:24:18.773Z,15.21
2018-08-12T00:26:11.682Z,15.17
2018-08-12T00:27:11.701Z,15.16
2018-08-12T00:29:05.617Z,15.20
2018-08-12T00:30:05.619Z,15.21
2018-08-12T00:31:58.526Z,15.20
2018-08-12T00:32:58.546Z,15.07
2018-08-12T00:34:51.473Z,15.06
2018-08-12T00:35:51.473Z,15.06
2018-08-12T00:37:44.401Z,15.03
2018-08-12T00:38:44.401Z,14.92
2018-08-12T00:40:37.305Z,14.96
2018-08-12T00:41:37.325Z,14.83
2018-08-12T00:43:30.253Z,14.83
2018-08-12T00:44:30.250Z,14.73
2018-08-12T00:46:23.158Z,14.55
2018-08-12T00:47:23.178Z,14.51
2018-08-12T00:49:16.103Z,14.45
2018-08-12T00:50:16.107Z,14.39
2018-08-12T00:52:09.008Z,14.47
2018-08-12T00:53:09.027Z,14.43
2018-08-12T00:55:01.980Z,14.46
2018-08-12T00:56:01.961Z,14.47
2018-08-12T00:57:54.897Z,14.55
2018-08-12T00:58:54.889Z,14.47
2018-08-12T01:00:47.793Z,14.47
2018-08-12T01:01:47.817Z,14.52
2018-08-12T01:03:40.743Z,14.54
2018-08-12T01:04:40.741Z,14.54
2018-08-12T01:06:33.642Z,14.40
2018-08-12T01:07:33.661Z,14.58
2018-08-12T01:09:26.599Z,14.55
2018-08-12T01:10:26.600Z,14.51
2018-08-12T01:12:19.503Z,14.57
2018-08-12T01:13:19.521Z,14.51
2018-08-12T01:15:12.446Z,14.57
2018-08-12T01:16:12.449Z,14.52
2018-08-12T01:18:05.376Z,14.46
2018-08-12T01:19:05.372Z,14.50
2018-08-12T01:20:58.283Z,14.50
2018-08-12T01:21:58.302Z,14.43
2018-08-12T01:23:51.224Z,14.50
2018-08-12T01:24:51.224Z,14.54
2018-08-12T01:26:44.131Z,14.58
2018-08-12T01:27:44.150Z,14.52
2018-08-12T01:29:37.078Z,14.62
2018-08-12T01:30:37.076Z,14.51
2018-08-12T01:32:29.982Z,14.50
2018-08-12T01:33:30.001Z,14.45
2018-08-12T01:35:22.927Z,14.37
2018-08-12T01:36:22.985Z,14.28
2018-08-12T01:38:15.853Z,14.17
2018-08-12T01:39:15.848Z,14.22
2018-08-12T01:41:08.757Z,14.14
2018-08-12T01:42:08.775Z,14.14
2018-08-12T01:44:01.703Z,14.07
2018-08-12T01:45:01.707Z,14.07
2018-08-12T01:46:54.602Z,14.09
2018-08-12T01:47:54.622Z,14.00
2018-08-12T01:49:47.549Z,13.99
2018-08-12T01:50:47.548Z,14.00
2018-08-12T01:52:40.456Z,14.03
2018-08-12T01:53:40.475Z,14.04
2018-08-12T01:55:33.401Z,14.02
2018-08-12T01:56:33.397Z,13.92
2018-08-12T01:58:26.322Z,13.88
2018-08-12T01:59:26.320Z,13.81
2018-08-12T02:01:19.230Z,13.84
2018-08-12T02:02:19.244Z,13.89
2018-08-12T02:04:12.171Z,13.78
2018-08-12T02:05:12.166Z,13.75
2018-08-12T02:07:05.073Z,13.64
2018-08-12T02:08:05.094Z,13.64
2018-08-12T02:09:58.031Z,13.63
2018-08-12T02:10:58.021Z,13.62
2018-08-12T02:12:50.927Z,13.77
2018-08-12T02:13:50.942Z,13.73
2018-08-12T02:15:43.866Z,13.71
2018-08-12T02:16:43.866Z,13.66
2018-08-12T02:18:36.794Z,13.75
2018-08-12T02:19:36.793Z,13.55
2018-08-12T02:21:29.693Z,13.54
2018-08-12T02:22:29.713Z,13.48
2018-08-12T02:24:22.635Z,13.44
2018-08-12T02:25:22.634Z,13.39
2018-08-12T02:27:15.539Z,13.48
2018-08-12T02:28:15.557Z,13.38
2018-08-12T02:30:08.484Z,13.32
2018-08-12T02:31:08.486Z,13.14
2018-08-12T02:33:01.395Z,13.04
2018-08-12T02:34:01.399Z,13.04
2018-08-12T02:35:54.328Z,12.90
2018-08-12T02:36:54.323Z,12.95
2018-08-12T02:38:48.235Z,12.77
2018-08-12T02:39:48.235Z,12.77
2018-08-12T02:41:41.140Z,12.72
2018-08-12T02:42:41.159Z,12.77
2018-08-12T02:44:34.082Z,12.79
2018-08-12T02:45:34.079Z,12.79
2018-08-12T02:47:26.982Z,12.87
2018-08-12T02:48:27.002Z,12.92
2018-08-12T02:50:19.927Z,13.08
2018-08-12T02:51:19.927Z,13.03
2018-08-12T02:53:12.838Z,13.23
2018-08-12T02:54:12.844Z,13.11
2018-08-12T02:56:05.868Z,13.05
2018-08-12T02:57:05.767Z,13.03
2018-08-12T02:58:58.691Z,13.03
2018-08-12T02:59:58.691Z,13.00
2018-08-12T03:01:51.599Z,13.11
2018-08-12T03:02:51.618Z,13.08
2018-08-12T03:04:44.541Z,13.00
2018-08-12T03:05:44.540Z,13.11
2018-08-12T03:07:37.447Z,13.01
2018-08-12T03:08:37.466Z,13.05
2018-08-12T03:10:30.386Z,12.95
2018-08-12T03:11:30.395Z,12.93
2018-08-12T03:13:23.289Z,13.00
2018-08-12T03:14:23.307Z,12.92
2018-08-12T03:16:16.234Z,12.96
2018-08-12T03:17:16.230Z,12.93
2018-08-12T03:19:09.159Z,12.97
2018-08-12T03:20:09.152Z,12.96
2018-08-12T03:22:02.052Z,12.97
2018-08-12T03:23:02.077Z,13.00
2018-08-12T03:24:54.996Z,12.95
2018-08-12T03:25:54.994Z,12.87
2018-08-12T03:27:47.897Z,12.86
2018-08-12T03:28:47.914Z,12.83
2018-08-12T03:30:40.881Z,12.77
2018-08-12T03:31:40.836Z,12.77
2018-08-12T03:33:33.737Z,12.74
2018-08-12T03:34:33.757Z,12.79
2018-08-12T03:36:26.683Z,12.77
2018-08-12T03:37:26.681Z,12.79
2018-08-12T03:39:19.607Z,12.72
2018-08-12T03:40:19.602Z,12.78
2018-08-12T03:42:12.506Z,12.78
2018-08-12T03:43:12.523Z,12.77
2018-08-12T03:45:05.447Z,12.67
2018-08-12T03:46:05.445Z,12.71
2018-08-12T03:47:58.353Z,12.65
2018-08-12T03:48:58.399Z,12.62
2018-08-12T03:50:51.294Z,12.71
2018-08-12T03:51:51.291Z,12.68
2018-08-12T03:53:44.189Z,12.59
2018-08-12T03:54:44.208Z,12.68
2018-08-12T03:56:37.134Z,12.62
2018-08-12T03:57:37.130Z,12.62
2018-08-12T03:59:30.054Z,12.59
2018-08-12T04:00:30.050Z,12.65
2018-08-12T04:02:22.971Z,12.68
2018-08-12T04:03:22.976Z,12.57
2018-08-12T04:05:15.893Z,12.62
2018-08-12T04:06:15.889Z,12.65
2018-08-12T04:08:08.796Z,12.65
2018-08-12T04:09:08.817Z,12.71
2018-08-12T04:11:01.738Z,12.71
2018-08-12T04:12:01.734Z,12.82
2018-08-12T04:13:54.638Z,12.75
2018-08-12T04:14:54.653Z,12.75
2018-08-12T04:16:47.582Z,12.82
2018-08-12T04:17:47.583Z,12.79
2018-08-12T04:19:40.502Z,12.85
2018-08-12T04:20:40.498Z,12.86
2018-08-12T04:22:33.399Z,12.86
2018-08-12T04:23:33.417Z,12.89
2018-08-12T04:25:26.344Z,12.89
2018-08-12T04:26:26.340Z,12.89
2018-08-12T04:28:19.242Z,12.95
2018-08-12T04:29:19.261Z,12.95
2018-08-12T04:31:12.183Z,12.95
2018-08-12T04:32:12.182Z,12.87
2018-08-12T04:34:05.084Z,12.95
2018-08-12T04:35:05.102Z,12.97
2018-08-12T04:36:58.027Z,13.00
2018-08-12T04:37:58.022Z,13.19
2018-08-12T04:39:50.946Z,13.15
2018-08-12T04:40:50.941Z,13.19
2018-08-12T04:42:43.856Z,13.29
2018-08-12T04:43:43.864Z,13.29
2018-08-12T04:45:36.785Z,13.41
2018-08-12T04:46:36.785Z,13.44
2018-08-12T04:48:29.688Z,13.46
2018-08-12T04:49:29.707Z,13.44
2018-08-12T04:51:22.632Z,13.42
2018-08-12T04:52:22.633Z,13.42
2018-08-12T04:54:15.538Z,13.44
2018-08-12T04:55:15.554Z,13.57
2018-08-12T04:57:08.477Z,13.67
2018-08-12T04:58:08.475Z,13.71
2018-08-12T05:00:01.400Z,13.77
2018-08-12T05:01:01.399Z,13.79
2018-08-12T05:02:54.305Z,13.81
2018-08-12T05:03:54.323Z,13.89
2018-08-12T05:05:47.253Z,13.85
2018-08-12T05:06:47.256Z,13.91
2018-08-12T05:08:40.160Z,13.89
2018-08-12T05:09:40.181Z,13.95
2018-08-12T05:11:33.098Z,14.00
2018-08-12T05:12:33.099Z,14.04
2018-08-12T05:14:25.999Z,13.85
2018-08-12T05:15:26.019Z,13.97
2018-08-12T05:17:18.946Z,14.00
2018-08-12T05:18:18.940Z,13.92
2018-08-12T05:20:11.878Z,13.99
2018-08-12T05:21:11.866Z,13.96
2018-08-12T05:23:04.778Z,14.02
2018-08-12T05:24:04.793Z,14.06
2018-08-12T05:25:57.714Z,14.18
2018-08-12T05:26:57.715Z,14.18
2018-08-12T05:28:50.622Z,14.15
2018-08-12T05:29:50.641Z,14.12
2018-08-12T05:31:43.566Z,14.18
2018-08-12T05:32:43.563Z,14.27
2018-08-12T05:34:36.469Z,14.24
2018-08-12T05:35:36.491Z,14.24
2018-08-12T05:37:30.414Z,14.29
2018-08-12T05:38:30.410Z,14.22
2018-08-12T05:40:23.337Z,14.18
2018-08-12T05:41:23.334Z,14.28
2018-08-12T05:43:16.257Z,14.21
2018-08-12T05:44:16.260Z,14.21
2018-08-12T05:46:09.182Z,14.33
2018-08-12T05:47:09.183Z,14.29
2018-08-12T05:49:02.113Z,14.46
2018-08-12T05:50:02.108Z,14.47
2018-08-12T05:51:55.046Z,14.64
2018-08-12T05:52:55.033Z,14.73
2018-08-12T05:54:47.939Z,14.84
2018-08-12T05:55:47.956Z,14.98
2018-08-12T05:57:40.884Z,15.09
2018-08-12T05:58:40.885Z,15.14
2018-08-12T06:00:33.796Z,15.35
2018-08-12T06:01:33.814Z,15.50
2018-08-12T06:03:26.758Z,15.36
2018-08-12T06:04:26.739Z,15.41
2018-08-12T06:06:19.673Z,15.51
2018-08-12T06:07:19.671Z,15.53
2018-08-12T06:09:12.583Z,15.59
2018-08-12T06:10:12.602Z,15.72
2018-08-12T06:12:05.534Z,15.96
2018-08-12T06:13:05.535Z,16.14
2018-08-12T06:14:58.442Z,16.81
2018-08-12T06:15:58.476Z,17.08
2018-08-12T06:17:51.394Z,17.58
2018-08-12T06:18:51.399Z,17.81
2018-08-12T06:20:44.530Z,18.27
2018-08-12T06:21:44.553Z,18.50
2018-08-12T06:23:37.485Z,18.91
2018-08-12T06:24:37.489Z,19.04
2018-08-12T06:26:30.420Z,19.47
2018-08-12T06:27:30.423Z,19.65
2018-08-12T06:29:23.339Z,20.11
2018-08-12T06:30:23.366Z,20.16
2018-08-12T06:32:16.297Z,20.39
2018-08-12T06:33:16.300Z,20.62
2018-08-12T06:35:09.216Z,21.10
2018-08-12T06:36:09.240Z,21.21
2018-08-12T06:38:02.176Z,21.40
2018-08-12T06:39:02.185Z,21.37
2018-08-12T06:40:55.097Z,21.34
2018-08-12T06:41:55.126Z,21.44
2018-08-12T06:43:48.089Z,21.29
2018-08-12T06:44:48.068Z,21.28
2018-08-12T06:46:41.014Z,21.21
2018-08-12T06:47:41.026Z,21.27
2018-08-12T06:49:33.943Z,21.35
2018-08-12T06:50:33.965Z,21.56
2018-08-12T06:52:26.913Z,21.71
2018-08-12T06:53:26.913Z,21.77
2018-08-12T06:55:20.022Z,22.09
2018-08-12T06:56:20.048Z,22.15
2018-08-12T06:58:13.016Z,22.22
2018-08-12T06:59:13.004Z,22.28
2018-08-12T07:01:05.929Z,22.61
2018-08-12T07:02:05.955Z,22.77
2018-08-12T07:03:58.904Z,22.90
2018-08-12T07:04:58.906Z,23.09
2018-08-12T07:06:51.979Z,23.27
2018-08-12T07:07:51.988Z,23.36
2018-08-12T07:09:44.908Z,23.53
2018-08-12T07:10:44.938Z,23.42
2018-08-12T07:12:37.884Z,23.69
2018-08-12T07:13:37.902Z,23.63
2018-08-12T07:15:30.815Z,23.35
2018-08-12T07:16:30.850Z,23.22
2018-08-12T07:18:23.783Z,22.91
2018-08-12T07:19:23.792Z,22.85
2018-08-12T07:21:17.705Z,22.51
2018-08-12T07:22:17.731Z,22.31
2018-08-12T07:24:10.666Z,22.12
2018-08-12T07:25:10.678Z,21.79
2018-08-12T07:27:03.615Z,21.40
2018-08-12T07:28:03.621Z,21.27
2018-08-12T07:29:56.536Z,21.27
2018-08-12T07:30:56.565Z,21.27
2018-08-12T07:32:49.546Z,21.49
2018-08-12T07:33:49.506Z,21.61
2018-08-12T07:35:42.420Z,21.84
2018-08-12T07:36:42.449Z,21.88
2018-08-12T07:38:35.427Z,21.99
2018-08-12T07:39:35.391Z,22.17
2018-08-12T07:41:28.305Z,22.20
2018-08-12T07:42:28.332Z,22.21
2018-08-12T07:44:21.274Z,22.33
2018-08-12T07:45:21.271Z,22.45
2018-08-12T07:47:14.204Z,22.54
2018-08-12T07:48:14.217Z,22.55
2018-08-12T07:50:07.126Z,22.68
2018-08-12T07:51:07.155Z,22.79
2018-08-12T07:53:00.091Z,22.94
2018-08-12T07:54:00.097Z,22.90
2018-08-12T07:55:53.122Z,23.01
2018-08-12T07:56:53.035Z,23.16
2018-08-12T07:58:45.989Z,23.28
2018-08-12T07:59:45.995Z,23.23
2018-08-12T08:01:40.077Z,23.47
2018-08-12T08:02:40.103Z,23.54
2018-08-12T08:04:33.038Z,23.60
2018-08-12T08:05:33.048Z,23.69
2018-08-12T08:07:25.980Z,23.70
2018-08-12T08:08:25.982Z,23.73
2018-08-12T08:10:18.899Z,23.78
2018-08-12T08:11:18.929Z,23.85
2018-08-12T08:13:12.359Z,24.06
2018-08-12T08:14:12.363Z,24.13
2018-08-12T08:16:05.285Z,24.20
2018-08-12T08:17:05.308Z,24.24
2018-08-12T08:18:58.240Z,24.46
2018-08-12T08:19:58.250Z,24.43
2018-08-12T08:21:51.165Z,24.47
2018-08-12T08:22:51.192Z,24.52
2018-08-12T08:24:44.143Z,24.62
2018-08-12T08:25:44.162Z,24.68
2018-08-12T08:27:37.102Z,24.69
2018-08-12T08:28:37.077Z,24.77
2018-08-12T08:30:30.010Z,24.87
2018-08-12T08:31:30.145Z,24.90
2018-08-12T08:33:23.112Z,24.87
2018-08-12T08:34:23.119Z,24.87
2018-08-12T08:36:16.036Z,25.05
2018-08-12T08:37:16.065Z,25.14
2018-08-12T08:39:09.000Z,25.24
2018-08-12T08:40:09.009Z,25.14
2018-08-12T08:42:01.927Z,25.28
2018-08-12T08:43:01.955Z,25.36
2018-08-12T08:44:54.893Z,25.36
2018-08-12T08:45:54.901Z,25.43
2018-08-12T08:47:47.836Z,25.58
2018-08-12T08:48:47.847Z,25.61
2018-08-12T08:50:40.780Z,25.60
2018-08-12T08:51:40.798Z,25.55
2018-08-12T08:53:33.734Z,25.64
2018-08-12T08:54:33.743Z,25.75
2018-08-12T08:56:26.659Z,25.82
2018-08-12T08:57:26.687Z,25.82
2018-08-12T08:59:19.627Z,25.87
2018-08-12T09:00:19.636Z,25.82
2018-08-12T09:02:12.557Z,25.87
2018-08-12T09:03:12.582Z,25.83
2018-08-12T09:05:05.522Z,25.67
2018-08-12T09:06:05.531Z,25.72
2018-08-12T09:07:58.745Z,25.65
2018-08-12T09:08:58.908Z,25.62
2018-08-12T09:10:51.596Z,25.70
2018-08-12T09:11:51.683Z,25.70
2018-08-12T09:13:44.568Z,25.62
2018-08-12T09:14:44.572Z,25.79
2018-08-12T09:16:37.500Z,26.07
2018-08-12T09:17:37.529Z,26.09
2018-08-12T09:19:30.465Z,26.05
2018-08-12T09:20:30.489Z,26.06
2018-08-12T09:22:23.624Z,26.10
2018-08-12T09:23:23.653Z,26.09
2018-08-12T09:25:16.594Z,26.21
2018-08-12T09:26:16.605Z,26.32
2018-08-12T09:28:09.538Z,26.18
2018-08-12T09:29:09.544Z,26.21
2018-08-12T09:31:02.466Z,26.29
2018-08-12T09:32:02.495Z,26.39
2018-08-12T09:33:55.743Z,26.51
2018-08-12T09:34:55.724Z,26.58
2018-08-12T09:36:49.804Z,26.69
2018-08-12T09:37:49.840Z,26.73
2018-08-12T09:39:42.936Z,26.84
2018-08-12T09:40:42.883Z,26.88
2018-08-12T09:42:35.863Z,26.87
2018-08-12T09:43:35.949Z,26.87
2018-08-12T09:45:28.822Z,26.92
2018-08-12T09:46:28.832Z,27.03
2018-08-12T09:48:22.155Z,27.14
2018-08-12T09:49:22.194Z,27.21
2018-08-12T09:51:15.182Z,27.29
2018-08-12T09:52:16.253Z,27.27
2018-08-12T09:54:08.118Z,27.22
2018-08-12T09:55:08.092Z,27.25
2018-08-12T09:57:02.860Z,27.19
2018-08-12T09:58:01.963Z,27.37
2018-08-12T09:59:54.045Z,27.36
2018-08-12T10:00:54.005Z,27.40
2018-08-12T10:02:46.924Z,27.40
2018-08-12T10:03:46.951Z,27.43
2018-08-12T10:05:39.893Z,27.54
2018-08-12T10:06:39.899Z,27.57
2018-08-12T10:08:32.839Z,27.67
2018-08-12T10:09:32.846Z,27.67
2018-08-12T10:11:25.980Z,27.74
2018-08-12T10:12:26.006Z,27.70
2018-08-12T10:14:18.974Z,27.63
2018-08-12T10:15:18.965Z,27.75
2018-08-12T10:17:11.908Z,27.78
2018-08-12T10:18:11.915Z,27.72
2018-08-12T10:20:04.853Z,27.79
2018-08-12T10:21:04.865Z,27.93
2018-08-12T10:22:57.951Z,28.00
2018-08-12T10:23:58.139Z,28.12
2018-08-12T10:25:50.795Z,28.21
2018-08-12T10:26:50.800Z,28.27
2018-08-12T10:28:43.766Z,28.17
2018-08-12T10:29:43.773Z,28.24
2018-08-12T10:31:36.705Z,28.22
2018-08-12T10:32:36.779Z,28.21
2018-08-12T10:34:29.671Z,28.22
2018-08-12T10:35:29.678Z,28.17
2018-08-12T10:37:22.602Z,28.29
2018-08-12T10:38:22.631Z,28.25
2018-08-12T10:40:15.567Z,28.37
2018-08-12T10:41:15.576Z,28.25
2018-08-12T10:43:08.501Z,28.15
2018-08-12T10:44:08.528Z,28.12
2018-08-12T10:46:01.492Z,28.18
2018-08-12T10:47:01.495Z,28.21
2018-08-12T10:48:56.819Z,28.19
2018-08-12T10:49:54.463Z,28.25
2018-08-12T10:51:47.371Z,28.14
2018-08-12T10:52:47.411Z,28.21
2018-08-12T10:54:40.340Z,28.06
2018-08-12T10:55:40.347Z,28.06
2018-08-12T10:57:33.659Z,28.07
2018-08-12T10:58:33.352Z,28.12
2018-08-12T11:00:26.310Z,28.03
2018-08-12T11:01:26.279Z,27.97
2018-08-12T11:03:19.201Z,27.90
2018-08-12T11:04:19.232Z,27.87
2018-08-12T11:06:12.171Z,27.81
2018-08-12T11:07:12.226Z,27.87
2018-08-12T11:09:05.135Z,27.97
2018-08-12T11:10:05.130Z,27.92
2018-08-12T11:11:58.061Z,27.97
2018-08-12T11:12:58.083Z,27.93
2018-08-12T11:14:51.031Z,27.90
2018-08-12T11:15:51.031Z,27.90
2018-08-12T11:17:43.953Z,27.87
2018-08-12T11:18:43.981Z,27.97
2018-08-12T11:20:36.980Z,28.12
2018-08-12T11:21:36.960Z,28.22
2018-08-12T11:23:30.058Z,28.34
2018-08-12T11:24:30.090Z,28.36
2018-08-12T11:26:23.211Z,28.48
2018-08-12T11:27:23.220Z,28.49
2018-08-12T11:29:16.167Z,28.59
2018-08-12T11:30:16.168Z,28.56
2018-08-12T11:32:09.095Z,28.51
2018-08-12T11:33:09.120Z,28.51
2018-08-12T11:35:02.068Z,28.58
2018-08-12T11:36:02.066Z,28.62
2018-08-12T11:37:54.992Z,28.67
2018-08-12T11:38:55.016Z,28.66
2018-08-12T11:40:47.957Z,28.62
2018-08-12T11:41:47.967Z,28.55
2018-08-12T11:43:40.898Z,28.51
2018-08-12T11:44:40.916Z,28.54
2018-08-12T11:46:33.870Z,28.77
2018-08-12T11:47:33.936Z,28.71
2018-08-12T11:49:26.817Z,28.70
2018-08-12T11:50:26.821Z,28.66
2018-08-12T11:52:19.750Z,28.76
2018-08-12T11:53:19.776Z,28.73
2018-08-12T11:55:12.864Z,28.83
2018-08-12T11:56:12.872Z,28.98
2018-08-12T11:58:05.795Z,29.08
2018-08-12T11:59:05.822Z,29.18
2018-08-12T12:00:58.972Z,29.33
2018-08-12T12:01:58.975Z,29.30
2018-08-12T12:03:51.897Z,29.24
2018-08-12T12:04:51.924Z,29.18
2018-08-12T12:06:45.380Z,29.16
2018-08-12T12:07:45.377Z,29.26
2018-08-12T12:09:38.344Z,29.36
2018-08-12T12:10:38.324Z,29.37
2018-08-12T12:12:31.249Z,29.52
2018-08-12T12:13:31.316Z,29.57
2018-08-12T12:15:24.227Z,29.52
2018-08-12T12:16:24.279Z,29.48
2018-08-12T12:18:17.152Z,29.51
2018-08-12T12:19:17.181Z,29.49
2018-08-12T12:21:10.233Z,29.55
2018-08-12T12:22:10.132Z,29.63
2018-08-12T12:24:03.091Z,29.63
2018-08-12T12:25:03.111Z,29.70
2018-08-12T12:26:59.174Z,29.73
2018-08-12T12:27:56.645Z,29.82
2018-08-12T12:29:49.611Z,29.80
2018-08-12T12:30:49.609Z,29.76
2018-08-12T12:32:42.540Z,29.68
2018-08-12T12:33:42.662Z,29.68
2018-08-12T12:35:35.667Z,29.65
2018-08-12T12:36:35.567Z,29.65
2018-08-12T12:38:28.498Z,29.80
2018-08-12T12:39:28.522Z,29.76
2018-08-12T12:41:21.468Z,29.92
2018-08-12T12:42:21.476Z,29.94
2018-08-12T12:44:14.401Z,29.95
2018-08-12T12:45:14.493Z,29.98
2018-08-12T12:47:07.376Z,30.16
2018-08-12T12:48:07.387Z,30.15
2018-08-12T12:50:00.350Z,30.11
2018-08-12T12:51:00.338Z,30.15
2018-08-12T12:52:53.289Z,29.98
2018-08-12T12:53:53.290Z,30.01
2018-08-12T12:55:46.243Z,29.97
2018-08-12T12:56:46.244Z,29.90
2018-08-12T12:58:39.175Z,29.58
2018-08-12T12:59:39.264Z,29.46
2018-08-12T13:01:32.172Z,29.43
2018-08-12T13:02:32.181Z,29.43
2018-08-12T13:04:25.113Z,29.37
2018-08-12T13:05:25.147Z,29.31
2018-08-12T13:07:18.102Z,29.33
2018-08-12T13:08:18.094Z,29.30
2018-08-12T13:10:11.020Z,29.51
2018-08-12T13:11:11.074Z,29.51
2018-08-12T13:13:03.993Z,29.60
2018-08-12T13:14:04.000Z,29.79
2018-08-12T13:15:56.951Z,29.85
2018-08-12T13:16:56.956Z,29.97
2018-08-12T13:18:49.917Z,30.08
2018-08-12T13:19:49.910Z,30.10
2018-08-12T13:21:42.848Z,30.23
2018-08-12T13:22:42.857Z,30.26
2018-08-12T13:24:35.780Z,30.42
2018-08-12T13:25:35.807Z,30.42
2018-08-12T13:27:28.750Z,30.46
2018-08-12T13:28:28.760Z,30.58
2018-08-12T13:30:21.684Z,30.60
2018-08-12T13:31:21.714Z,30.51
2018-08-12T13:33:14.774Z,30.42
2018-08-12T13:34:14.668Z,30.27
2018-08-12T13:36:07.782Z,30.26
2018-08-12T13:37:07.789Z,30.37
2018-08-12T13:39:00.717Z,30.39
2018-08-12T13:40:00.743Z,30.24
2018-08-12T13:41:53.697Z,30.37
2018-08-12T13:42:53.700Z,30.43
2018-08-12T13:44:46.630Z,30.49
2018-08-12T13:45:46.657Z,30.51
2018-08-12T13:47:39.611Z,30.38
2018-08-12T13:48:39.614Z,30.47
2018-08-12T13:50:32.540Z,30.43
2018-08-12T13:51:32.570Z,30.32
2018-08-12T13:53:25.523Z,30.27
2018-08-12T13:54:25.525Z,30.34
2018-08-12T13:56:18.476Z,30.42
2018-08-12T13:57:18.482Z,30.34
2018-08-12T13:59:11.407Z,30.42
2018-08-12T14:00:11.437Z,30.39
2018-08-12T14:02:04.387Z,30.54
2018-08-12T14:03:04.390Z,30.53
2018-08-12T14:04:57.316Z,30.45
2018-08-12T14:05:57.349Z,30.37
2018-08-12T14:07:50.488Z,30.29
2018-08-12T14:08:50.495Z,30.26
2018-08-12T14:10:43.418Z,30.35
2018-08-12T14:11:43.449Z,30.38
2018-08-12T14:13:36.406Z,30.35
2018-08-12T14:14:36.409Z,30.42
2018-08-12T14:16:29.359Z,30.55
2018-08-12T14:17:29.364Z,30.60
2018-08-12T14:19:22.291Z,30.72
2018-08-12T14:20:22.321Z,30.82
2018-08-12T14:22:15.272Z,30.88
2018-08-12T14:23:15.275Z,31.01
2018-08-12T14:25:08.384Z,30.92
2018-08-12T14:26:08.412Z,30.88
2018-08-12T14:28:01.368Z,30.83
2018-08-12T14:29:01.369Z,30.84
2018-08-12T14:30:54.295Z,30.92
2018-08-12T14:31:54.325Z,31.06
2018-08-12T14:33:47.278Z,31.09
2018-08-12T14:34:47.285Z,31.09
2018-08-12T14:36:40.238Z,31.10
2018-08-12T14:37:40.331Z,31.13
2018-08-12T14:39:33.366Z,31.07
2018-08-12T14:40:34.489Z,31.12
2018-08-12T14:42:26.347Z,31.07
2018-08-12T14:43:26.386Z,31.02
2018-08-12T14:45:19.285Z,31.09
2018-08-12T14:46:19.316Z,31.04
2018-08-12T14:48:12.755Z,31.07
2018-08-12T14:49:12.763Z,31.14
2018-08-12T14:51:05.705Z,31.25
2018-08-12T14:52:05.724Z,31.34
2018-08-12T14:53:59.174Z,31.35
2018-08-12T14:54:59.188Z,31.34
2018-08-12T14:56:52.337Z,31.48
2018-08-12T14:57:52.475Z,31.58
2018-08-12T14:59:45.764Z,31.46
2018-08-12T15:00:45.795Z,31.41
2018-08-12T15:02:38.741Z,31.28
2018-08-12T15:03:38.748Z,31.17
2018-08-12T15:05:31.676Z,31.31
2018-08-12T15:06:31.708Z,31.21
2018-08-12T15:08:24.873Z,31.29
2018-08-12T15:09:24.896Z,31.26
2018-08-12T15:11:18.864Z,31.31
2018-08-12T15:12:18.348Z,31.25
2018-08-12T15:14:11.495Z,31.25
2018-08-12T15:15:11.548Z,31.19
2018-08-12T15:17:05.092Z,31.28
2018-08-12T15:18:05.097Z,31.26
2018-08-12T15:19:58.025Z,31.51
2018-08-12T15:20:58.866Z,31.44
2018-08-12T15:22:51.251Z,31.65
2018-08-12T15:23:51.189Z,31.57
2018-08-12T15:25:44.233Z,31.36
2018-08-12T15:26:44.264Z,31.32
2018-08-12T15:28:37.469Z,31.29
2018-08-12T15:29:37.397Z,31.26
2018-08-12T15:31:30.514Z,31.32
2018-08-12T15:32:30.564Z,31.38
2018-08-12T15:34:23.819Z,31.46
2018-08-12T15:35:23.766Z,31.46
2018-08-12T15:37:16.995Z,31.61
2018-08-12T15:38:16.806Z,31.58
2018-08-12T15:40:10.252Z,31.43
2018-08-12T15:41:09.923Z,31.53
2018-08-12T15:43:02.876Z,31.29
2018-08-12T15:44:02.932Z,31.23
2018-08-12T15:45:55.812Z,31.20
2018-08-12T15:46:55.882Z,31.28
2018-08-12T15:48:49.279Z,31.29
2018-08-12T15:49:49.328Z,31.31
2018-08-12T15:51:42.224Z,31.10
2018-08-12T15:52:42.259Z,31.04
2018-08-12T15:54:35.411Z,30.95
2018-08-12T15:55:35.484Z,30.98
2018-08-12T15:57:28.418Z,30.99
2018-08-12T15:58:28.379Z,31.01
2018-08-12T16:00:21.319Z,31.04
2018-08-12T16:01:21.336Z,31.07
2018-08-12T16:03:14.281Z,31.23
2018-08-12T16:04:14.290Z,31.28
2018-08-12T16:06:07.215Z,31.32
2018-08-12T16:07:07.244Z,31.31
2018-08-12T16:09:00.250Z,31.28
2018-08-12T16:10:00.201Z,31.31
2018-08-12T16:11:54.621Z,31.26
2018-08-12T16:12:54.651Z,31.21
2018-08-12T16:14:47.824Z,31.19
2018-08-12T16:15:47.835Z,31.19
2018-08-12T16:17:40.984Z,31.13
2018-08-12T16:18:40.995Z,31.12
2018-08-12T16:20:34.125Z,31.07
2018-08-12T16:21:34.150Z,30.94
2018-08-12T16:23:27.301Z,31.04
2018-08-12T16:24:27.311Z,31.01
2018-08-12T16:26:21.463Z,30.95
2018-08-12T16:27:21.495Z,30.86
2018-08-12T16:29:14.644Z,30.92
2018-08-12T16:30:14.654Z,30.88
2018-08-12T16:32:07.590Z,30.94
2018-08-12T16:33:07.614Z,31.02
2018-08-12T16:35:00.565Z,31.13
2018-08-12T16:36:00.572Z,31.26
2018-08-12T16:37:53.550Z,31.31
2018-08-12T16:38:53.549Z,31.29
2018-08-12T16:40:46.699Z,31.28
2018-08-12T16:41:46.675Z,31.28
2018-08-12T16:43:39.658Z,31.21
2018-08-12T16:44:39.633Z,31.29
2018-08-12T16:46:32.561Z,31.46
2018-08-12T16:47:32.592Z,31.35
2018-08-12T16:49:25.637Z,31.41
2018-08-12T16:50:25.547Z,31.46
2018-08-12T16:52:18.478Z,31.46
2018-08-12T16:53:18.506Z,31.50
2018-08-12T16:55:11.459Z,31.51
2018-08-12T16:56:11.477Z,31.44
2018-08-12T16:58:04.424Z,31.43
2018-08-12T16:59:04.429Z,31.36
2018-08-12T17:00:57.353Z,31.25
2018-08-12T17:01:57.395Z,31.25
2018-08-12T17:03:50.355Z,31.20
2018-08-12T17:04:50.341Z,31.17
2018-08-12T17:06:43.314Z,31.10
2018-08-12T17:07:43.299Z,30.97
2018-08-12T17:09:36.247Z,31.07
2018-08-12T17:10:36.252Z,30.95
2018-08-12T17:12:29.178Z,30.83
2018-08-12T17:13:29.207Z,30.79
2018-08-12T17:15:22.161Z,30.70
2018-08-12T17:16:22.168Z,30.67
2018-08-12T17:18:15.116Z,30.70
2018-08-12T17:19:15.120Z,30.77
2018-08-12T17:21:08.043Z,30.69
2018-08-12T17:22:08.076Z,30.64
2018-08-12T17:24:01.191Z,30.46
2018-08-12T17:25:01.228Z,30.46
2018-08-12T17:26:54.136Z,30.26
2018-08-12T17:27:54.157Z,30.23
2018-08-12T17:29:47.106Z,30.16
2018-08-12T17:30:47.112Z,30.01
2018-08-12T17:32:40.131Z,30.02
2018-08-12T17:33:40.068Z,29.95
2018-08-12T17:35:33.018Z,30.02
2018-08-12T17:36:33.021Z,29.97
2018-08-12T17:38:25.968Z,30.01
2018-08-12T17:39:25.975Z,29.92
2018-08-12T17:41:18.902Z,29.82
2018-08-12T17:42:18.931Z,29.82
2018-08-12T17:44:11.927Z,29.83
2018-08-12T17:45:12.046Z,29.83
2018-08-12T17:47:04.813Z,29.78
2018-08-12T17:48:04.868Z,29.80
2018-08-12T17:49:57.794Z,29.57
2018-08-12T17:50:57.798Z,29.55
2018-08-12T17:52:50.733Z,29.51
2018-08-12T17:53:50.779Z,29.53
2018-08-12T17:55:43.705Z,29.49
2018-08-12T17:56:43.713Z,29.52
2018-08-12T17:58:36.665Z,29.53
2018-08-12T17:59:36.686Z,29.48
2018-08-12T18:01:30.591Z,29.46
2018-08-12T18:02:30.622Z,29.42
2018-08-12T18:04:23.571Z,29.39
2018-08-12T18:05:23.573Z,29.34
2018-08-12T18:07:16.501Z,29.30
2018-08-12T18:10:09.525Z,29.27
2018-08-12T18:11:09.517Z,29.26
2018-08-12T18:13:02.438Z,29.16
2018-08-12T18:14:02.484Z,29.24
2018-08-12T18:15:55.417Z,29.06
2018-08-12T18:16:55.517Z,29.09
2018-08-12T18:18:48.387Z,29.09
2018-08-12T18:19:48.378Z,29.05
2018-08-12T18:21:41.300Z,28.95
2018-08-12T18:22:41.328Z,29.00
2018-08-12T18:24:34.270Z,28.77
2018-08-12T18:25:34.278Z,28.73
2018-08-12T18:27:27.226Z,28.64
2018-08-12T18:28:27.230Z,28.62
2018-08-12T18:30:20.181Z,28.34
2018-08-12T18:31:20.184Z,28.43
2018-08-12T18:33:13.190Z,28.24
2018-08-12T18:34:13.139Z,28.17